• Join FlightAware (Why Join?)
  • Login
  • US Flag 
06:28PM EDT


 

Airport Tracker/Info


-or-


 

Live Flight TrackerFlight Track Log ✈ SWA2975 ✈ 04-Jul-2013 ✈ KSLC - KMDW

Flight Track Log - Related Links

Times and Time Zones

All times are in EDT time to prevent confusion due to time zone crossing. See the SWA2975 flight status page for this flight to view local times or setup timezone preferences in your user account.

Time Position Orientation Groundspeed Altitude Reporting Facility
EDT Latitude Longitude Course Direction KTS MPH feet Rate Location/Type
06:41PM 40.8050 -111.9770 355° North 172 198 4,800  Level FlightAware
06:41PM 40.8250 -111.9790 356° North 192 221 5,500 1,620 Climbing FlightAware
06:42PM 40.8370 -111.9810 353° North 209 241 5,800 1,920 Climbing FlightAware
06:42PM 40.8710 -111.9860 354° North 233 268 7,000 2,520 Climbing FlightAware
06:43PM 40.8960 -111.9890 355° North 234 269 8,200 3,060 Climbing FlightAware
06:43PM 40.9180 -111.9920 354° North 238 274 9,200 2,640 Climbing FlightAware
06:43PM 40.9360 -111.9940 355° North 249 287 9,800 1,680 Climbing FlightAware
06:43PM 40.9500 -111.9960 354° North 268 308 10,000 1,020 Climbing FlightAware
06:44PM 40.9840 -111.9690 31° Northeast 320 368 10,500 1,020 Climbing FlightAware
06:44PM 40.9910 -111.9390 73° East 346 398 10,800 1,860 Climbing FlightAware
06:45PM 40.9970 -111.8620 84° East 365 420 12,100 2,400 Climbing FlightAware
06:45PM 41.0070 -111.7710 82° East 374 430 13,900 2,520 Climbing FlightAware
06:46PM 41.0180 -111.6940 79° East 389 448 15,300 2,400 Climbing FlightAware
06:47PM 41.0270 -111.5870 84° East 402 463 17,100 2,580 Climbing FlightAware
06:47PM 41.0100 -111.4900 103° East 403 464 19,000 2,640 Climbing FlightAware
06:48PM 40.9920 -111.3820 102° East 411 473 20,800 1,500 Climbing FlightAware
06:49PM 40.9770 -111.2820 101° East 416 479 21,300 420 Climbing FlightAware
06:49PM 40.9690 -111.2310 102° East 416 479 21,300  Level FlightAware
06:50PM 40.9530 -111.1220 101° East 416 479 21,300  Level FlightAware
06:51PM 40.9420 -111.0460 101° East 416 479 21,300  Level FlightAware
06:51PM 40.9310 -110.9690 101° East 416 479 21,300 4,020 Level FlightAware
06:52PM 40.7930 -110.7570 131° Southeast 478 550 27,800 5,100 Climbing FlightAware
06:53PM 40.7720 -110.7130 122° Southeast 482 555 28,200 1,500 Climbing FlightAware
06:53PM 40.7060 -110.6020 128° Southeast 484 557 29,500 1,560 Climbing FlightAware
06:54PM 40.6430 -110.4970 128° Southeast 487 560 30,600 1,500 Climbing FlightAware
06:55PM 40.5940 -110.4130 128° Southeast 484 557 31,600 1,680 Climbing FlightAware
06:56PM 40.5320 -110.3090 128° Southeast 481 554 32,900 1,500 Climbing FlightAware
06:56PM 40.4910 -110.2220 122° Southeast 479 551 33,700 1,200 Climbing FlightAware
06:57PM 40.4690 -110.0960 103° East 478 550 34,600 900 Climbing FlightAware
06:58PM 40.4480 -109.9800 103° East 483 556 35,000 360 Climbing FlightAware
06:58PM 40.4370 -109.9160 103° East 483 556 35,000  Level FlightAware
06:59PM 40.4140 -109.7840 103° East 483 556 35,000 720 Level FlightAware
06:59PM 40.3930 -109.6640 103° East 469 540 36,100 1,380 Climbing FlightAware
07:00PM 40.3800 -109.5930 103° East 469 540 36,500 720 Climbing FlightAware
07:01PM 40.3570 -109.4710 104° East 470 541 37,000 300 Climbing FlightAware
07:01PM 40.3350 -109.3480 103° East 468 539 37,000  Level FlightAware
07:02PM 40.3200 -109.2310 100° East 466 536 37,000  Level FlightAware
07:03PM 40.3200 -109.1230 90° East 465 535 37,000  Level FlightAware
07:03PM 40.3200 -108.9920 90° East 466 536 37,000  Level FlightAware
07:04PM 40.3200 -108.8810 90° East 467 537 37,000  Level FlightAware
07:05PM 40.3200 -108.7390 90° East 467 537 37,000  Level FlightAware
07:06PM 40.3200 -108.6190 90° East 465 535 37,000  Level FlightAware
07:07PM 40.3190 -108.4740 90° East 464 534 37,000  Level FlightAware
07:08PM 40.3220 -108.3040 89° East 456 525 37,000  Level FlightAware
07:08PM 40.3390 -108.1970 78° East 454 522 37,000  Level FlightAware
07:09PM 40.3580 -108.0740 79° East 453 521 37,000  Level FlightAware
07:10PM 40.3730 -107.9720 79° East 453 521 37,000  Level FlightAware
07:10PM 40.3880 -107.8690 79° East 453 521 37,000  Level FlightAware
07:11PM 40.4030 -107.7620 80° East 452 520 37,000  Level FlightAware
07:12PM 40.4200 -107.6450 79° East 452 520 37,000  Level FlightAware
07:12PM 40.4330 -107.5600 79° East 453 521 37,000  Level FlightAware
07:13PM 40.4500 -107.4400 79° East 451 519 37,000  Level FlightAware
07:14PM 40.4650 -107.3310 80° East 451 519 37,000  Level FlightAware
07:14PM 40.4820 -107.2150 79° East 449 517 37,000  Level FlightAware
07:15PM 40.4970 -107.1050 80° East 448 516 37,000  Level FlightAware
07:16PM 40.5130 -106.9890 80° East 445 512 37,000  Level FlightAware
07:16PM 40.5280 -106.8830 79° East 444 511 37,000  Level FlightAware
07:17PM 40.5440 -106.7680 80° East 444 511 37,000  Level FlightAware
07:18PM 40.5590 -106.6580 80° East 447 514 37,000  Level FlightAware
07:19PM 40.5750 -106.5410 80° East 449 517 37,000  Level FlightAware
07:19PM 40.5890 -106.4350 80° East 448 516 37,000  Level FlightAware
07:20PM 40.6050 -106.3140 80° East 448 516 37,000  Level FlightAware
07:21PM 40.6190 -106.2050 80° East 448 516 37,000  Level FlightAware
07:21PM 40.6350 -106.0870 80° East 448 516 37,000  Level FlightAware
07:22PM 40.6490 -105.9810 80° East 448 516 37,000  Level FlightAware
07:23PM 40.6610 -105.8870 80° East 449 517 37,000  Level FlightAware
07:23PM 40.6780 -105.7530 80° East 448 516 37,000  Level FlightAware
07:24PM 40.6900 -105.6540 81° East 452 520 37,000  Level FlightAware
07:25PM 40.7040 -105.5440 80° East 453 521 37,000  Level FlightAware
07:25PM 40.7190 -105.4260 80° East 452 520 37,000  Level FlightAware
07:26PM 40.7300 -105.3400 80° East 452 520 37,000  Level FlightAware
07:27PM 40.7430 -105.2300 81° East 452 520 37,000  Level FlightAware
07:27PM 40.7580 -105.1090 81° East 452 520 37,000  Level FlightAware
07:28PM 40.7720 -104.9920 81° East 450 518 37,000  Level FlightAware
07:29PM 40.7850 -104.8840 81° East 449 517 37,000  Level FlightAware
07:29PM 40.7990 -104.7640 81° East 450 518 37,000  Level FlightAware
07:30PM 40.8120 -104.6560 81° East 452 520 37,000  Level FlightAware
07:31PM 40.8250 -104.5470 81° East 453 521 37,000  Level FlightAware
07:31PM 40.8360 -104.4480 82° East 453 521 37,000  Level FlightAware
07:32PM 40.8500 -104.3290 81° East 447 514 37,000  Level FlightAware
07:33PM 40.8620 -104.2260 81° East 446 513 37,000  Level FlightAware
07:33PM 40.8740 -104.1230 81° East 444 511 37,000  Level FlightAware
07:34PM 40.8860 -104.0130 82° East 444 511 37,000  Level FlightAware
07:35PM 40.8970 -103.9100 82° East 442 509 37,000  Level FlightAware
07:36PM 40.9100 -103.7930 82° East 440 506 37,000  Level FlightAware
07:36PM 40.9240 -103.6730 81° East 438 504 37,000  Level FlightAware
07:37PM 40.9350 -103.5720 82° East 438 504 37,000  Level FlightAware
07:38PM 40.9460 -103.4610 82° East 438 504 37,000  Level FlightAware
07:38PM 40.9550 -103.3830 81° East 438 504 37,000  Level FlightAware
07:39PM 40.9710 -103.2270 82° East 439 505 37,000  Level FlightAware
07:40PM 40.9850 -103.0910 82° East 439 505 37,000  Level FlightAware
07:41PM 41.0020 -102.9280 82° East 441 507 37,000  Level FlightAware
07:42PM 41.0120 -102.8270 82° East 441 507 37,000  Level FlightAware
07:42PM 41.0240 -102.7080 82° East 442 509 37,000  Level FlightAware
07:43PM 41.0360 -102.5940 82° East 441 507 37,000  Level FlightAware
07:44PM 41.0470 -102.4770 83° East 440 506 37,000  Level FlightAware
07:44PM 41.0570 -102.3740 83° East 439 505 37,000  Level FlightAware
07:45PM 41.0660 -102.2790 83° East 436 502 37,000  Level FlightAware
07:46PM 41.0760 -102.1800 82° East 435 501 37,000  Level FlightAware
07:47PM 41.0730 -101.9850 91° East 450 518 37,000  Level FlightAware
07:48PM 41.0600 -101.8760 99° East 449 517 37,000  Level FlightAware
07:48PM 41.0470 -101.7650 99° East 449 517 37,000  Level FlightAware
07:49PM 41.0370 -101.6820 99° East 449 517 37,000  Level FlightAware
07:50PM 41.0230 -101.5710 99° East 449 517 37,000  Level FlightAware
07:50PM 41.0130 -101.4880 99° East 449 517 37,000  Level FlightAware
07:51PM 41.0000 -101.3770 99° East 449 517 37,000  Level FlightAware
07:52PM 40.9900 -101.2940 99° East 449 517 37,000  Level FlightAware
07:52PM 40.9800 -101.2110 99° East 449 517 37,000  Level FlightAware
07:53PM 40.9670 -101.1000 99° East 449 517 37,000  Level FlightAware
07:54PM 40.9570 -101.0170 99° East 449 517 37,000  Level FlightAware
07:54PM 40.9470 -100.9330 99° East 449 517 37,000  Level FlightAware
07:55PM 40.9340 -100.8230 99° East 449 517 37,000  Level FlightAware
07:56PM 40.9240 -100.7370 99° East 449 517 37,000  Level FlightAware
07:56PM 40.9130 -100.6520 100° East 449 517 37,000  Level FlightAware
07:57PM 41.0711 -100.3522 100° East 438 504 37,000  Level Minneapolis Center
07:58PM 41.0778 -100.2628 84° East 437 503 37,000  Level Denver Center
07:59PM 41.0906 -100.1103 84° East 435 501 37,000  Level Denver Center
08:00PM 41.1042 -99.9578 83° East 436 502 37,000  Level Denver Center
08:01PM 41.1200 -99.7772 83° East 440 506 37,000  Level Denver Center
08:02PM 41.1575 -99.6364 70° East 427 491 37,000  Level Denver Center
08:03PM 41.2294 -99.5031 54° Northeast 402 463 37,000  Level Denver Center
08:04PM 41.2919 -99.3900 54° Northeast 398 458 37,000  Level Denver Center
08:05PM 41.3569 -99.2694 54° Northeast 398 458 37,000  Level Denver Center
08:06PM 41.4239 -99.1522 53° Northeast 395 455 37,000  Level Denver Center
08:07PM 41.4908 -99.0342 53° Northeast 395 455 37,000  Level Denver Center
08:12PM 41.5720 -98.3340 53° Northeast 462 532 37,000  Level FlightAware
08:13PM 41.5180 -98.2520 131° Southeast 462 532 37,000  Level FlightAware
08:14PM 41.4550 -98.1580 132° Southeast 462 532 37,000  Level FlightAware
08:14PM 41.3960 -98.0690 131° Southeast 463 533 37,000  Level FlightAware
08:15PM 41.3340 -97.9770 132° Southeast 464 534 37,000  Level FlightAware
08:16PM 41.2840 -97.9000 131° Southeast 464 534 37,000  Level FlightAware
08:16PM 41.3090 -97.7940 73° East 422 486 37,000  Level FlightAware
08:17PM 41.3110 -97.6970 88° East 422 486 37,000  Level FlightAware
08:18PM 41.3120 -97.5620 89° East 420 483 37,000  Level FlightAware
08:18PM 41.3140 -97.4660 88° East 419 482 37,000  Level FlightAware
08:19PM 41.3150 -97.3290 89° East 416 479 37,000  Level FlightAware
08:20PM 41.3170 -97.2290 88° East 414 476 37,000  Level FlightAware
08:21PM 41.3180 -97.1160 89° East 414 476 37,000  Level FlightAware
08:21PM 41.3190 -97.0160 89° East 413 475 37,000  Level FlightAware
08:22PM 41.3200 -96.9030 89° East 413 475 37,000  Level FlightAware
08:23PM 41.3210 -96.7970 89° East 413 475 37,000  Level FlightAware
08:23PM 41.3220 -96.7170 89° East 413 475 37,000  Level FlightAware
08:24PM 41.3230 -96.6070 89° East 412 474 37,000  Level FlightAware
08:25PM 41.3240 -96.5050 89° East 412 474 37,000  Level FlightAware
08:25PM 41.3240 -96.4140 90° East 411 473 37,000  Level FlightAware
08:26PM 41.3250 -96.3130 89° East 411 473 37,000  Level FlightAware
08:27PM 41.3250 -96.2020 90° East 411 473 37,000  Level FlightAware
08:27PM 41.3250 -96.0930 90° East 411 473 37,000  Level FlightAware
08:28PM 41.3260 -95.9900 89° East 414 476 37,000  Level FlightAware
08:29PM 41.3260 -95.8580 90° East 418 481 37,000  Level FlightAware
08:30PM 41.3250 -95.7320 91° East 422 486 37,000  Level FlightAware
08:30PM 41.3070 -95.6320 103° East 439 505 37,000  Level FlightAware
08:31PM 41.2580 -95.5290 122° Southeast 459 528 37,000  Level FlightAware
08:32PM 41.1920 -95.4500 138° Southeast 466 536 37,000  Level FlightAware
08:32PM 41.1260 -95.3760 140° Southeast 465 535 37,000  Level FlightAware
08:33PM 41.0530 -95.2960 140° Southeast 463 533 37,000  Level FlightAware
08:34PM 40.9900 -95.2280 141° Southeast 463 533 37,000  Level FlightAware
08:35PM 40.9180 -95.1490 140° Southeast 459 528 37,000  Level FlightAware
08:35PM 40.9000 -95.1180 128° Southeast 439 505 37,000  Level FlightAware
08:35PM 40.8910 -95.0800 107° East 424 488 37,000  Level FlightAware
08:35PM 40.8900 -95.0180 91° East 412 474 37,000  Level FlightAware
08:37PM 40.9030 -94.8450 84° East 418 481 37,000  Level FlightAware
08:37PM 40.9100 -94.7610 84° East 418 481 37,000  Level FlightAware
08:38PM 40.9160 -94.6830 84° East 418 481 37,000  Level FlightAware
08:39PM 40.9240 -94.5830 84° East 418 481 37,000  Level FlightAware
08:39PM 40.9300 -94.5050 84° East 418 481 37,000  Level FlightAware
08:40PM 40.9370 -94.3520 86° East 420 483 37,000  Level FlightAware
08:41PM 40.9450 -94.2430 84° East 422 486 37,000  Level FlightAware
08:41PM 40.9530 -94.1180 85° East 426 490 37,000  Level FlightAware
08:42PM 40.9600 -94.0120 85° East 428 493 37,000  Level FlightAware
08:43PM 40.9660 -93.9140 85° East 428 493 37,000  Level FlightAware
08:43PM 40.9710 -93.8350 85° East 428 493 37,000  Level FlightAware
08:44PM 40.9800 -93.6940 85° East 429 494 37,000  Level FlightAware
08:45PM 40.9860 -93.5870 86° East 430 495 37,000  Level FlightAware
08:45PM 40.9920 -93.4870 85° East 431 496 37,000 -420 Level FlightAware
08:46PM 40.9990 -93.3720 85° East 435 501 36,500 -780 Descending FlightAware
08:47PM 41.0050 -93.2720 85° East 439 505 36,000 -900 Descending FlightAware
08:47PM 41.0110 -93.1710 85° East 444 511 35,400 -1,020 Descending FlightAware
08:48PM 41.0170 -93.0620 86° East 446 513 34,700 -1,020 Descending FlightAware
08:49PM 41.0240 -92.9360 86° East 444 511 34,000 -960 Descending FlightAware
08:50PM 41.0300 -92.8180 86° East 444 511 33,300 -1,020 Descending FlightAware
08:50PM 41.0360 -92.7080 86° East 449 517 32,600 -1,020 Descending FlightAware
08:51PM 41.0420 -92.5890 86° East 444 511 31,900 -960 Descending FlightAware
08:51PM 41.0470 -92.5060 85° East 443 510 31,500 -960 Descending FlightAware
08:52PM 41.0530 -92.3830 86° East 448 516 30,700 -1,020 Descending FlightAware
08:53PM 41.0590 -92.2720 86° East 442 509 30,100 -960 Descending FlightAware
08:53PM 41.0640 -92.1720 86° East 450 518 29,500 -840 Descending FlightAware
08:54PM 41.0690 -92.0530 87° East 459 528 29,000 -420 Descending FlightAware
08:55PM 41.0750 -91.9400 86° East 459 528 29,000  Level FlightAware
08:56PM 41.0800 -91.8230 87° East 459 528 29,000  Level FlightAware
08:56PM 41.0850 -91.7060 87° East 457 526 29,000  Level FlightAware
08:57PM 41.0900 -91.5850 87° East 455 524 29,000 -180 Level FlightAware
08:58PM 41.0950 -91.4710 87° East 458 527 28,800 -660 Descending FlightAware
08:58PM 41.1000 -91.3710 86° East 463 533 28,200 -960 Descending FlightAware
08:59PM 41.1040 -91.2570 87° East 468 539 27,600 -960 Descending FlightAware
09:00PM 41.1090 -91.1350 87° East 469 540 26,900 -1,020 Descending FlightAware
09:00PM 41.1130 -91.0360 87° East 468 539 26,300 -1,140 Descending FlightAware
09:01PM 41.1170 -90.9180 87° East 451 519 25,500 -1,200 Descending FlightAware
09:02PM 41.1220 -90.8020 87° East 414 476 24,700 -1,080 Descending FlightAware
09:02PM 41.1260 -90.6950 87° East 392 451 24,000 -540 Descending FlightAware
09:03PM 41.1290 -90.6010 88° East 397 457 24,000  Level FlightAware
09:04PM 41.1320 -90.4970 88° East 399 459 24,000 -480 Level FlightAware
09:04PM 41.1360 -90.3950 87° East 397 457 23,400 -1,140 Descending FlightAware
09:05PM 41.1390 -90.3060 87° East 390 449 22,500 -1,800 Descending FlightAware
09:06PM 41.1420 -90.2100 88° East 381 438 21,100 -2,100 Descending FlightAware
09:06PM 41.1450 -90.1120 88° East 372 428 19,600 -2,100 Descending FlightAware
09:07PM 41.1480 -90.0240 87° East 365 420 18,300 -2,100 Descending FlightAware
09:08PM 41.1500 -89.9440 88° East 359 413 17,000 -2,280 Descending FlightAware
09:08PM 41.1530 -89.8460 88° East 356 410 15,300 -1,500 Descending FlightAware
09:09PM 41.1550 -89.7580 88° East 350 403 14,900 -300 Descending FlightAware
09:10PM 41.1580 -89.6650 88° East 348 400 14,900 -360 Level FlightAware
09:10PM 41.1740 -89.5820 76° East 352 405 14,400 -900 Descending FlightAware
09:11PM 41.2010 -89.4960 67° East 348 400 13,700 -1,020 Descending FlightAware
09:12PM 41.2250 -89.4150 68° East 346 398 13,000 -1,140 Descending FlightAware
09:13PM 41.2500 -89.3300 69° East 343 395 12,200 -1,020 Descending FlightAware
09:13PM 41.2740 -89.2510 68° East 341 392 11,600 -960 Descending FlightAware
09:14PM 41.2980 -89.1700 68° East 335 386 10,900 -540 Descending FlightAware
09:15PM 41.3210 -89.0910 69° East 295 339 10,900  Level FlightAware
09:15PM 41.3420 -89.0220 68° East 284 327 10,900 -480 Level FlightAware
09:16PM 41.3610 -88.9560 69° East 288 331 10,300 -900 Descending FlightAware
09:17PM 41.3740 -88.9100 69° East 287 330 9,900 -1,020 Descending FlightAware
09:17PM 41.3880 -88.8640 68° East 286 329 9,400 -1,080 Descending FlightAware
09:17PM 41.4020 -88.8180 68° East 285 328 8,900 -1,020 Descending FlightAware
09:18PM 41.4150 -88.7720 69° East 283 326 8,500 -1,020 Descending FlightAware
09:18PM 41.4280 -88.7280 68° East 281 323 8,000 -1,080 Descending FlightAware
09:19PM 41.4410 -88.6820 69° East 286 329 7,500 -960 Descending FlightAware
09:19PM 41.4530 -88.6420 68° East 288 331 7,200 -960 Descending FlightAware
09:20PM 41.4660 -88.5950 70° East 286 329 6,700 -1,080 Descending FlightAware
09:20PM 41.4710 -88.5750 72° East 286 329 6,500 -1,080 Descending FlightAware
09:20PM 41.4840 -88.5300 69° East 284 327 6,000 -900 Descending FlightAware
09:21PM 41.4900 -88.5100 68° East 283 326 5,900 -180 Descending FlightAware
09:21PM 41.5010 -88.4710 69° East 281 323 5,900 -240 Level FlightAware
09:21PM 41.5120 -88.4240 73° East 283 326 5,700 -600 Descending FlightAware
09:22PM 41.5150 -88.4070 77° East 284 327 5,500 -1,140 Descending FlightAware
09:22PM 41.5220 -88.3600 79° East 282 325 5,000 -660 Descending FlightAware
09:23PM 41.5310 -88.3090 77° East 279 321 4,900 -120 Descending FlightAware
09:23PM 41.5390 -88.2620 77° East 278 320 4,900  Level FlightAware
09:23PM 41.5440 -88.2220 81° East 277 319 4,900  Level FlightAware
09:24PM 41.5450 -88.2050 86° East 277 319 4,900  Level FlightAware
09:24PM 41.5460 -88.1570 88° East 278 320 4,900  Level FlightAware
09:25PM 41.5480 -88.1040 87° East 279 321 4,900  Level FlightAware
09:25PM 41.5490 -88.0760 87° East 279 321 4,900  Level FlightAware
09:25PM 41.5500 -88.0300 88° East 279 321 4,900  Level FlightAware
09:26PM 41.5520 -87.9820 87° East 280 322 4,900  Level FlightAware
09:26PM 41.5540 -87.9320 87° East 280 322 4,900  Level FlightAware
09:26PM 41.5550 -87.9110 86° East 280 322 4,900 -600 Level FlightAware
09:27PM 41.5560 -87.8650 88° East 277 319 4,500 -900 Descending FlightAware
09:27PM 41.5580 -87.8160 87° East 275 316 4,100 -660 Descending FlightAware
09:28PM 41.5600 -87.7690 87° East 272 313 3,900 -300 Descending FlightAware
09:28PM 41.5610 -87.7360 88° East 270 311 3,900 -360 Level FlightAware
09:28PM 41.5670 -87.7110 72° East 269 310 3,700 -960 Descending FlightAware
09:29PM 41.5910 -87.6740 49° Northeast 272 313 3,200 -960 Descending FlightAware
09:29PM 41.6000 -87.6610 47° Northeast 273 314 3,100 -480 Descending FlightAware
09:30PM 41.6240 -87.6280 46° Northeast 256 295 2,900 -300 Descending FlightAware
09:30PM 41.6380 -87.6130 39° Northeast 239 275 2,900  Level FlightAware
09:30PM 41.6470 -87.6100 14° North 228 262 2,900 -900 Level FlightAware
09:30PM 41.6580 -87.6130 348° North 223 257 2,600 -780 Descending FlightAware
09:31PM 41.6840 -87.6320 331° Northwest 221 254 2,400 -240 Descending FlightAware
09:31PM 41.7080 -87.6510 329° Northwest 219 252 2,400 -120 Level FlightAware
09:32PM 41.7300 -87.6720 325° Northwest 198 228 2,300 -180 Descending FlightAware
09:32PM 41.7430 -87.6770 344° North 213 245 2,300  Level FlightAware
09:32PM 41.7690 -87.6770 360° North 186 214 2,300 -480 Level FlightAware
09:33PM 41.7910 -87.6800 354° North 172 198 1,900 -780 Descending FlightAware
09:33PM 41.8130 -87.6910 340° North 157 181 1,600 -600 Descending FlightAware
09:34PM 41.8180 -87.7080 292° West 142 163 1,400 -780 Descending FlightAware
09:34PM 41.8110 -87.7200 232° Southwest 130 150 1,100 -720 Descending FlightAware
09:34PM 41.8000 -87.7333 232° Southwest 130 150 800 -120 Descending Chicago TRACON
09:35PM 41.7786 -87.7542 216° Southwest 162 186 1,000 300 Climbing Chicago Center